NOZ1052 ENGM-EPGD
Flight info
| Callsign | NOZ1052 |
|---|---|
| Flight time | 1h 14m |
| Altitude | 31000 |
| Route | OKSAT L996 GETPA/N0441F350 L727 NEGIL DCT PENOR DCT MOTAD N133 DOMAG T240 OGDAV |
| Aircraft | B738/M-SDE2E3GHILRWXY/LB1 |
Departure
| Time | 2026-05-05 19:37 |
|---|---|
| Airport | Oslo-Gardermoen International Airport (ENGM) |
Arrival
| Time | 2026-05-05 20:52 |
|---|---|
| Airport | Gdańsk Lech Wałęsa Airport (EPGD) |
| Time | Latitude | Longitude | Altitude | Speed | Heading |
|---|---|---|---|---|---|
| 2026-05-05 18:58 | 60.19554 | 11.09502 | 684 ft | 0 kts | 196° |
| 2026-05-05 19:26 | 60.19556 | 11.09504 | 684 ft | 2 kts | 196° |
| 2026-05-05 19:27 | 60.19572 | 11.09513 | 680 ft | 3 kts | 196° |
| 2026-05-05 19:27 | 60.19591 | 11.09524 | 682 ft | 2 kts | 196° |
| 2026-05-05 19:27 | 60.19596 | 11.09527 | 684 ft | 1 kts | 196° |
| 2026-05-05 19:30 | 60.19590 | 11.09519 | 684 ft | 3 kts | 219° |
| 2026-05-05 19:30 | 60.19601 | 11.09476 | 684 ft | 5 kts | 344° |
| 2026-05-05 19:31 | 60.19647 | 11.09467 | 683 ft | 8 kts | 347° |
| 2026-05-05 19:31 | 60.19684 | 11.09384 | 682 ft | 9 kts | 284° |
| 2026-05-05 19:31 | 60.19701 | 11.09264 | 682 ft | 9 kts | 286° |
| 2026-05-05 19:31 | 60.19718 | 11.09147 | 682 ft | 9 kts | 286° |
| 2026-05-05 19:32 | 60.19738 | 11.09005 | 682 ft | 11 kts | 286° |
| 2026-05-05 19:32 | 60.19761 | 11.08842 | 677 ft | 13 kts | 286° |
| 2026-05-05 19:32 | 60.19762 | 11.08677 | 678 ft | 11 kts | 225° |
| 2026-05-05 19:32 | 60.19691 | 11.08625 | 678 ft | 11 kts | 196° |
| 2026-05-05 19:33 | 60.19611 | 11.08577 | 677 ft | 14 kts | 196° |
| 2026-05-05 19:33 | 60.19518 | 11.08523 | 677 ft | 14 kts | 196° |
| 2026-05-05 19:33 | 60.19427 | 11.08470 | 676 ft | 13 kts | 195° |
| 2026-05-05 19:33 | 60.19340 | 11.08421 | 674 ft | 13 kts | 196° |
| 2026-05-05 19:34 | 60.19256 | 11.08373 | 673 ft | 10 kts | 196° |
| 2026-05-05 19:34 | 60.19228 | 11.08265 | 672 ft | 10 kts | 287° |
| 2026-05-05 19:34 | 60.19246 | 11.08144 | 672 ft | 7 kts | 286° |
| 2026-05-05 19:35 | 60.19254 | 11.08083 | 671 ft | 0 kts | 286° |
| 2026-05-05 19:35 | 60.19257 | 11.08064 | 671 ft | 4 kts | 286° |
| 2026-05-05 19:35 | 60.19272 | 11.07951 | 671 ft | 11 kts | 276° |
| 2026-05-05 19:35 | 60.19274 | 11.07845 | 671 ft | 6 kts | 296° |
| 2026-05-05 19:36 | 60.19302 | 11.07837 | 671 ft | 0 kts | 16° |
| 2026-05-05 19:36 | 60.19331 | 11.07855 | 671 ft | 20 kts | 16° |
| 2026-05-05 19:36 | 60.19709 | 11.08069 | 673 ft | 92 kts | 16° |
| 2026-05-05 19:37 | 60.20535 | 11.08546 | 677 ft | 153 kts | 16° |
| 2026-05-05 19:37 | 60.21680 | 11.09205 | 994 ft | 179 kts | 15° |
| 2026-05-05 19:37 | 60.22913 | 11.09897 | 1712 ft | 189 kts | 14° |
| 2026-05-05 19:37 | 60.24157 | 11.10564 | 2646 ft | 182 kts | 14° |
| 2026-05-05 19:38 | 60.25461 | 11.11254 | 3020 ft | 208 kts | 9° |
| 2026-05-05 19:38 | 60.26972 | 11.11165 | 3240 ft | 228 kts | 350° |
| 2026-05-05 19:38 | 60.28606 | 11.10636 | 3549 ft | 244 kts | 351° |
| 2026-05-05 19:38 | 60.30316 | 11.10665 | 3851 ft | 262 kts | 17° |
| 2026-05-05 19:39 | 60.31837 | 11.12767 | 4313 ft | 274 kts | 53° |
| 2026-05-05 19:39 | 60.32531 | 11.16302 | 5124 ft | 275 kts | 86° |
| 2026-05-05 19:39 | 60.32187 | 11.20077 | 5881 ft | 277 kts | 116° |
| 2026-05-05 19:39 | 60.30998 | 11.23123 | 6635 ft | 280 kts | 143° |
| 2026-05-05 19:40 | 60.29293 | 11.25023 | 7383 ft | 282 kts | 158° |
| 2026-05-05 19:40 | 60.27456 | 11.26474 | 8068 ft | 286 kts | 160° |
| 2026-05-05 19:40 | 60.25574 | 11.27854 | 8757 ft | 290 kts | 161° |
| 2026-05-05 19:40 | 60.23661 | 11.29237 | 9435 ft | 293 kts | 160° |
| 2026-05-05 19:41 | 60.21729 | 11.30644 | 10096 ft | 297 kts | 160° |
| 2026-05-05 19:41 | 60.19771 | 11.32080 | 10393 ft | 314 kts | 160° |
| 2026-05-05 19:41 | 60.17656 | 11.33642 | 10548 ft | 333 kts | 160° |
| 2026-05-05 19:41 | 60.15426 | 11.35298 | 10788 ft | 347 kts | 160° |
| 2026-05-05 19:42 | 60.13134 | 11.37005 | 11267 ft | 353 kts | 160° |
| 2026-05-05 19:42 | 60.10826 | 11.38728 | 11830 ft | 355 kts | 160° |
| 2026-05-05 19:42 | 60.08500 | 11.40468 | 12383 ft | 358 kts | 160° |
| 2026-05-05 19:42 | 60.06153 | 11.42221 | 12915 ft | 362 kts | 160° |
| 2026-05-05 19:43 | 60.03781 | 11.43991 | 13424 ft | 365 kts | 160° |
| 2026-05-05 19:43 | 60.01420 | 11.45750 | 13915 ft | 368 kts | 160° |
| 2026-05-05 19:43 | 59.98978 | 11.47567 | 14425 ft | 371 kts | 160° |
| 2026-05-05 19:43 | 59.96548 | 11.49374 | 14911 ft | 375 kts | 160° |
| 2026-05-05 19:44 | 59.94120 | 11.51176 | 15383 ft | 378 kts | 160° |
| 2026-05-05 19:44 | 59.91645 | 11.53011 | 15848 ft | 381 kts | 160° |
| 2026-05-05 19:44 | 59.89148 | 11.54845 | 16342 ft | 382 kts | 160° |
| 2026-05-05 19:44 | 59.86657 | 11.56694 | 16796 ft | 382 kts | 160° |
| 2026-05-05 19:45 | 59.84158 | 11.58561 | 17252 ft | 384 kts | 160° |
| 2026-05-05 19:45 | 59.81643 | 11.60383 | 17760 ft | 385 kts | 160° |
| 2026-05-05 19:45 | 59.79126 | 11.62219 | 18285 ft | 385 kts | 160° |
| 2026-05-05 19:45 | 59.76590 | 11.63979 | 18624 ft | 388 kts | 161° |
| 2026-05-05 19:46 | 59.74033 | 11.65826 | 18890 ft | 393 kts | 160° |
| 2026-05-05 19:46 | 59.71462 | 11.67748 | 19262 ft | 396 kts | 159° |
| 2026-05-05 19:46 | 59.68886 | 11.69676 | 19649 ft | 397 kts | 160° |
| 2026-05-05 19:46 | 59.66291 | 11.71600 | 19988 ft | 399 kts | 160° |
| 2026-05-05 19:47 | 59.63712 | 11.73496 | 20290 ft | 401 kts | 160° |
| 2026-05-05 19:47 | 59.61080 | 11.75415 | 20578 ft | 404 kts | 160° |
| 2026-05-05 19:47 | 59.58432 | 11.77335 | 20871 ft | 406 kts | 160° |
| 2026-05-05 19:47 | 59.55777 | 11.79259 | 21144 ft | 408 kts | 160° |
| 2026-05-05 19:48 | 59.53099 | 11.81197 | 21396 ft | 410 kts | 160° |
| 2026-05-05 19:48 | 59.50443 | 11.83284 | 21602 ft | 413 kts | 153° |
| 2026-05-05 19:48 | 59.47995 | 11.86311 | 21785 ft | 417 kts | 142° |
| 2026-05-05 19:48 | 59.45728 | 11.89909 | 22033 ft | 419 kts | 141° |
| 2026-05-05 19:49 | 59.43474 | 11.93531 | 22251 ft | 420 kts | 141° |
| 2026-05-05 19:49 | 59.41972 | 11.95944 | 22376 ft | 421 kts | 141° |
| 2026-05-05 19:49 | 59.38921 | 12.00819 | 22642 ft | 424 kts | 141° |
| 2026-05-05 19:49 | 59.36622 | 12.04461 | 22845 ft | 425 kts | 141° |
| 2026-05-05 19:50 | 59.34310 | 12.08100 | 23047 ft | 427 kts | 141° |
| 2026-05-05 19:50 | 59.31986 | 12.11739 | 23243 ft | 428 kts | 142° |
| 2026-05-05 19:50 | 59.29683 | 12.15333 | 23415 ft | 429 kts | 142° |
| 2026-05-05 19:50 | 59.27337 | 12.18984 | 23580 ft | 431 kts | 142° |
| 2026-05-05 19:51 | 59.24986 | 12.22635 | 23730 ft | 432 kts | 142° |
| 2026-05-05 19:51 | 59.22625 | 12.26295 | 23892 ft | 433 kts | 142° |
| 2026-05-05 19:51 | 59.20258 | 12.29955 | 24050 ft | 435 kts | 142° |
| 2026-05-05 19:51 | 59.17886 | 12.33618 | 24195 ft | 436 kts | 142° |
| 2026-05-05 19:52 | 59.15503 | 12.37291 | 24332 ft | 437 kts | 142° |
| 2026-05-05 19:52 | 59.13122 | 12.40958 | 24579 ft | 434 kts | 142° |
| 2026-05-05 19:52 | 59.10790 | 12.44543 | 25304 ft | 420 kts | 142° |
| 2026-05-05 19:52 | 59.08524 | 12.48020 | 25863 ft | 412 kts | 142° |
| 2026-05-05 19:53 | 59.06274 | 12.51467 | 26130 ft | 412 kts | 142° |
| 2026-05-05 19:53 | 59.04014 | 12.54923 | 26232 ft | 415 kts | 142° |
| 2026-05-05 19:53 | 59.01733 | 12.58403 | 26344 ft | 418 kts | 142° |
| 2026-05-05 19:53 | 58.99438 | 12.61900 | 26445 ft | 421 kts | 142° |
| 2026-05-05 19:54 | 58.97117 | 12.65429 | 26475 ft | 426 kts | 142° |
| 2026-05-05 19:54 | 58.94801 | 12.68943 | 26508 ft | 430 kts | 142° |
| 2026-05-05 19:54 | 58.92436 | 12.72526 | 26538 ft | 433 kts | 142° |
| 2026-05-05 19:54 | 58.90054 | 12.76129 | 26566 ft | 437 kts | 142° |
| 2026-05-05 19:55 | 58.87651 | 12.79755 | 26589 ft | 439 kts | 142° |
| 2026-05-05 19:55 | 58.85230 | 12.83403 | 26608 ft | 442 kts | 142° |
| 2026-05-05 19:55 | 58.82799 | 12.87060 | 26629 ft | 445 kts | 142° |
| 2026-05-05 19:55 | 58.80352 | 12.90735 | 26648 ft | 447 kts | 142° |
| 2026-05-05 19:56 | 58.77886 | 12.94431 | 26663 ft | 449 kts | 142° |
| 2026-05-05 19:56 | 58.75415 | 12.98128 | 26679 ft | 451 kts | 142° |
| 2026-05-05 19:56 | 58.72926 | 13.01844 | 26718 ft | 452 kts | 142° |
| 2026-05-05 19:56 | 58.70469 | 13.05507 | 27314 ft | 439 kts | 142° |
| 2026-05-05 19:57 | 58.68087 | 13.09053 | 27865 ft | 429 kts | 142° |
| 2026-05-05 19:57 | 58.66529 | 13.11368 | 28039 ft | 427 kts | 142° |
| 2026-05-05 19:57 | 58.63372 | 13.16049 | 28137 ft | 430 kts | 142° |
| 2026-05-05 19:58 | 58.58600 | 13.23103 | 28285 ft | 434 kts | 143° |
| 2026-05-05 19:58 | 58.56204 | 13.26637 | 28408 ft | 434 kts | 143° |
| 2026-05-05 19:58 | 58.53809 | 13.30162 | 28519 ft | 435 kts | 143° |
| 2026-05-05 19:59 | 58.48995 | 13.37230 | 28702 ft | 437 kts | 143° |
| 2026-05-05 19:59 | 58.44196 | 13.44251 | 28877 ft | 438 kts | 143° |
| 2026-05-05 20:00 | 58.39331 | 13.51344 | 28938 ft | 442 kts | 143° |
| 2026-05-05 20:00 | 58.36864 | 13.54928 | 29061 ft | 449 kts | 143° |
| 2026-05-05 20:00 | 58.34358 | 13.58565 | 29103 ft | 458 kts | 143° |
| 2026-05-05 20:01 | 58.29233 | 13.65984 | 29287 ft | 464 kts | 143° |
| 2026-05-05 20:01 | 58.24087 | 13.73406 | 29285 ft | 464 kts | 143° |
| 2026-05-05 20:02 | 58.18927 | 13.80815 | 29521 ft | 465 kts | 143° |
| 2026-05-05 20:02 | 58.16347 | 13.84511 | 29963 ft | 463 kts | 143° |
| 2026-05-05 20:02 | 58.13780 | 13.88181 | 30407 ft | 461 kts | 143° |
| 2026-05-05 20:02 | 58.11227 | 13.91824 | 30762 ft | 458 kts | 143° |
| 2026-05-05 20:03 | 58.08682 | 13.95451 | 30756 ft | 459 kts | 143° |
| 2026-05-05 20:03 | 58.04442 | 14.01475 | 30772 ft | 459 kts | 143° |
| 2026-05-05 20:03 | 58.01881 | 14.05104 | 30881 ft | 460 kts | 143° |
| 2026-05-05 20:04 | 57.98491 | 14.09892 | 30795 ft | 453 kts | 142° |
| 2026-05-05 20:04 | 57.96009 | 14.13396 | 30672 ft | 438 kts | 142° |
| 2026-05-05 20:04 | 57.94416 | 14.15649 | 30704 ft | 426 kts | 143° |
| 2026-05-05 20:04 | 57.92074 | 14.18953 | 30845 ft | 419 kts | 143° |
| 2026-05-05 20:05 | 57.89744 | 14.22228 | 30918 ft | 418 kts | 143° |
| 2026-05-05 20:05 | 57.85079 | 14.28762 | 31001 ft | 419 kts | 143° |
| 2026-05-05 20:06 | 57.80385 | 14.35321 | 31010 ft | 421 kts | 143° |
| 2026-05-05 20:06 | 57.75663 | 14.41893 | 31010 ft | 423 kts | 143° |
| 2026-05-05 20:07 | 57.70925 | 14.48469 | 31008 ft | 425 kts | 144° |
| 2026-05-05 20:07 | 57.66161 | 14.55057 | 31005 ft | 426 kts | 144° |
| 2026-05-05 20:08 | 57.61378 | 14.61650 | 31004 ft | 427 kts | 144° |
| 2026-05-05 20:08 | 57.56612 | 14.68198 | 31004 ft | 429 kts | 144° |
| 2026-05-05 20:09 | 57.51802 | 14.74784 | 30999 ft | 430 kts | 144° |
| 2026-05-05 20:09 | 57.46982 | 14.81362 | 31001 ft | 430 kts | 144° |
| 2026-05-05 20:10 | 57.42148 | 14.87940 | 31001 ft | 431 kts | 144° |
| 2026-05-05 20:10 | 57.37303 | 14.94507 | 31003 ft | 431 kts | 144° |
| 2026-05-05 20:11 | 57.32453 | 15.01061 | 31002 ft | 432 kts | 144° |
| 2026-05-05 20:11 | 57.27606 | 15.07584 | 30914 ft | 427 kts | 147° |
| 2026-05-05 20:12 | 57.22873 | 15.13947 | 30917 ft | 422 kts | 148° |
| 2026-05-05 20:12 | 57.18014 | 15.20433 | 31068 ft | 439 kts | 148° |
| 2026-05-05 20:12 | 57.15516 | 15.23762 | 31180 ft | 446 kts | 148° |
| 2026-05-05 20:13 | 57.13021 | 15.27084 | 31373 ft | 450 kts | 148° |
| 2026-05-05 20:13 | 57.11831 | 15.28669 | 31500 ft | 450 kts | 148° |
| 2026-05-05 20:13 | 57.09288 | 15.32051 | 31864 ft | 449 kts | 148° |
| 2026-05-05 20:13 | 57.06765 | 15.35404 | 32293 ft | 447 kts | 148° |
| 2026-05-05 20:14 | 57.04243 | 15.38749 | 32689 ft | 445 kts | 148° |
| 2026-05-05 20:14 | 57.01737 | 15.42064 | 33019 ft | 445 kts | 148° |
| 2026-05-05 20:14 | 56.99223 | 15.45374 | 33316 ft | 442 kts | 146° |
| 2026-05-05 20:14 | 56.96721 | 15.48667 | 33548 ft | 445 kts | 148° |
| 2026-05-05 20:15 | 56.94198 | 15.51988 | 33765 ft | 446 kts | 148° |
| 2026-05-05 20:15 | 56.91685 | 15.55291 | 34134 ft | 444 kts | 148° |
| 2026-05-05 20:15 | 56.89184 | 15.58570 | 34500 ft | 441 kts | 148° |
| 2026-05-05 20:15 | 56.87189 | 15.61181 | 34718 ft | 442 kts | 148° |
| 2026-05-05 20:16 | 56.84689 | 15.64450 | 34910 ft | 443 kts | 148° |
| 2026-05-05 20:16 | 56.79628 | 15.71045 | 34909 ft | 448 kts | 148° |
| 2026-05-05 20:17 | 56.74582 | 15.77601 | 34897 ft | 442 kts | 148° |
| 2026-05-05 20:17 | 56.69621 | 15.84027 | 34911 ft | 440 kts | 148° |
| 2026-05-05 20:18 | 56.64628 | 15.90472 | 34907 ft | 440 kts | 147° |
| 2026-05-05 20:18 | 56.59630 | 15.96901 | 34908 ft | 439 kts | 148° |
| 2026-05-05 20:19 | 56.54636 | 16.03303 | 34909 ft | 440 kts | 148° |
| 2026-05-05 20:19 | 56.49633 | 16.09698 | 34907 ft | 440 kts | 148° |
| 2026-05-05 20:20 | 56.44619 | 16.16085 | 34908 ft | 441 kts | 148° |
| 2026-05-05 20:20 | 56.39624 | 16.22422 | 34908 ft | 441 kts | 148° |
| 2026-05-05 20:21 | 56.34590 | 16.28788 | 34909 ft | 441 kts | 148° |
| 2026-05-05 20:21 | 56.29556 | 16.35141 | 34906 ft | 442 kts | 148° |
| 2026-05-05 20:22 | 56.24508 | 16.41487 | 34907 ft | 442 kts | 148° |
| 2026-05-05 20:22 | 56.19451 | 16.47822 | 34914 ft | 442 kts | 148° |
| 2026-05-05 20:23 | 56.14398 | 16.54134 | 34918 ft | 443 kts | 148° |
| 2026-05-05 20:23 | 56.09368 | 16.60396 | 34916 ft | 443 kts | 148° |
| 2026-05-05 20:24 | 56.04302 | 16.66682 | 34920 ft | 443 kts | 148° |
| 2026-05-05 20:24 | 55.99240 | 16.72943 | 34916 ft | 443 kts | 148° |
| 2026-05-05 20:25 | 55.94173 | 16.79188 | 34918 ft | 442 kts | 148° |
| 2026-05-05 20:25 | 55.89119 | 16.85399 | 34903 ft | 437 kts | 148° |
| 2026-05-05 20:26 | 55.84146 | 16.91494 | 34227 ft | 433 kts | 148° |
| 2026-05-05 20:26 | 55.81677 | 16.94514 | 33820 ft | 429 kts | 148° |
| 2026-05-05 20:26 | 55.79219 | 16.97511 | 33399 ft | 426 kts | 148° |
| 2026-05-05 20:26 | 55.76816 | 17.00438 | 33019 ft | 422 kts | 149° |
| 2026-05-05 20:27 | 55.74402 | 17.03376 | 32626 ft | 419 kts | 149° |
| 2026-05-05 20:27 | 55.72003 | 17.06289 | 32236 ft | 416 kts | 149° |
| 2026-05-05 20:27 | 55.69626 | 17.09173 | 31853 ft | 413 kts | 149° |
| 2026-05-05 20:27 | 55.67259 | 17.12038 | 31469 ft | 410 kts | 149° |
| 2026-05-05 20:28 | 55.64915 | 17.14872 | 31093 ft | 407 kts | 149° |
| 2026-05-05 20:28 | 55.62502 | 17.17435 | 30702 ft | 401 kts | 157° |
| 2026-05-05 20:28 | 55.59993 | 17.19510 | 30345 ft | 396 kts | 159° |
| 2026-05-05 20:28 | 55.57479 | 17.21486 | 29974 ft | 394 kts | 160° |
| 2026-05-05 20:29 | 55.54986 | 17.23430 | 29602 ft | 391 kts | 160° |
| 2026-05-05 20:29 | 55.52510 | 17.25373 | 29223 ft | 387 kts | 160° |
| 2026-05-05 20:29 | 55.50061 | 17.27313 | 28832 ft | 385 kts | 159° |
| 2026-05-05 20:29 | 55.47632 | 17.29253 | 28458 ft | 382 kts | 159° |
| 2026-05-05 20:30 | 55.45221 | 17.31185 | 28079 ft | 379 kts | 159° |
| 2026-05-05 20:30 | 55.42835 | 17.33099 | 27702 ft | 376 kts | 159° |
| 2026-05-05 20:30 | 55.40456 | 17.35007 | 27327 ft | 374 kts | 159° |
| 2026-05-05 20:30 | 55.38097 | 17.36897 | 26949 ft | 371 kts | 159° |
| 2026-05-05 20:31 | 55.35753 | 17.38772 | 26580 ft | 368 kts | 159° |
| 2026-05-05 20:31 | 55.33425 | 17.40632 | 26213 ft | 366 kts | 159° |
| 2026-05-05 20:31 | 55.31143 | 17.42453 | 25853 ft | 364 kts | 159° |
| 2026-05-05 20:31 | 55.28844 | 17.44286 | 25488 ft | 361 kts | 159° |
| 2026-05-05 20:32 | 55.26561 | 17.46104 | 25122 ft | 359 kts | 159° |
| 2026-05-05 20:32 | 55.24297 | 17.47904 | 24775 ft | 356 kts | 159° |
| 2026-05-05 20:32 | 55.22041 | 17.49694 | 24402 ft | 354 kts | 160° |
| 2026-05-05 20:32 | 55.19801 | 17.51462 | 24048 ft | 352 kts | 160° |
| 2026-05-05 20:33 | 55.17570 | 17.53185 | 23706 ft | 349 kts | 160° |
| 2026-05-05 20:33 | 55.15351 | 17.54883 | 23359 ft | 347 kts | 160° |
| 2026-05-05 20:33 | 55.13147 | 17.56569 | 23013 ft | 345 kts | 160° |
| 2026-05-05 20:33 | 55.10955 | 17.58248 | 22672 ft | 343 kts | 160° |
| 2026-05-05 20:34 | 55.08802 | 17.59895 | 22317 ft | 341 kts | 160° |
| 2026-05-05 20:34 | 55.06627 | 17.61559 | 21967 ft | 339 kts | 160° |
| 2026-05-05 20:34 | 55.04474 | 17.63205 | 21620 ft | 337 kts | 160° |
| 2026-05-05 20:34 | 55.02324 | 17.64846 | 21273 ft | 335 kts | 160° |
| 2026-05-05 20:35 | 55.00192 | 17.66472 | 20932 ft | 333 kts | 160° |
| 2026-05-05 20:35 | 54.98107 | 17.68226 | 20586 ft | 334 kts | 152° |
| 2026-05-05 20:35 | 54.96222 | 17.70664 | 20124 ft | 340 kts | 139° |
| 2026-05-05 20:35 | 54.94578 | 17.73645 | 19791 ft | 341 kts | 136° |
| 2026-05-05 20:36 | 54.92986 | 17.76693 | 19406 ft | 340 kts | 135° |
| 2026-05-05 20:36 | 54.91404 | 17.79752 | 19025 ft | 339 kts | 135° |
| 2026-05-05 20:36 | 54.89828 | 17.82790 | 18210 ft | 351 kts | 135° |
| 2026-05-05 20:36 | 54.88145 | 17.86008 | 17262 ft | 366 kts | 135° |
| 2026-05-05 20:37 | 54.86421 | 17.89293 | 16696 ft | 368 kts | 135° |
| 2026-05-05 20:37 | 54.85291 | 17.91441 | 16440 ft | 365 kts | 135° |
| 2026-05-05 20:37 | 54.83033 | 17.95717 | 15908 ft | 359 kts | 135° |
| 2026-05-05 20:37 | 54.81347 | 17.98911 | 15421 ft | 357 kts | 135° |
| 2026-05-05 20:38 | 54.79668 | 18.02073 | 14929 ft | 357 kts | 135° |
| 2026-05-05 20:38 | 54.77991 | 18.05227 | 14534 ft | 353 kts | 135° |
| 2026-05-05 20:38 | 54.76335 | 18.08338 | 14137 ft | 351 kts | 135° |
| 2026-05-05 20:38 | 54.74686 | 18.11430 | 13717 ft | 348 kts | 135° |
| 2026-05-05 20:39 | 54.73042 | 18.14506 | 13285 ft | 347 kts | 135° |
| 2026-05-05 20:39 | 54.71410 | 18.17557 | 12862 ft | 345 kts | 135° |
| 2026-05-05 20:39 | 54.69803 | 18.20559 | 12452 ft | 342 kts | 135° |
| 2026-05-05 20:39 | 54.68189 | 18.23574 | 12024 ft | 341 kts | 135° |
| 2026-05-05 20:40 | 54.66561 | 18.26606 | 11600 ft | 338 kts | 135° |
| 2026-05-05 20:40 | 54.64988 | 18.29535 | 11183 ft | 336 kts | 135° |
| 2026-05-05 20:40 | 54.63400 | 18.32484 | 10768 ft | 334 kts | 135° |
| 2026-05-05 20:40 | 54.61821 | 18.35413 | 10370 ft | 332 kts | 135° |
| 2026-05-05 20:41 | 54.60255 | 18.38312 | 9962 ft | 329 kts | 135° |
| 2026-05-05 20:41 | 54.58702 | 18.41186 | 9724 ft | 322 kts | 135° |
| 2026-05-05 20:41 | 54.57209 | 18.43954 | 9645 ft | 310 kts | 135° |
| 2026-05-05 20:41 | 54.55767 | 18.46622 | 9561 ft | 299 kts | 135° |
| 2026-05-05 20:42 | 54.54374 | 18.49193 | 9485 ft | 288 kts | 135° |
| 2026-05-05 20:42 | 54.53025 | 18.51681 | 9338 ft | 281 kts | 135° |
| 2026-05-05 20:42 | 54.51696 | 18.54129 | 9050 ft | 279 kts | 135° |
| 2026-05-05 20:42 | 54.50372 | 18.56560 | 8701 ft | 277 kts | 135° |
| 2026-05-05 20:43 | 54.49060 | 18.58969 | 8269 ft | 276 kts | 135° |
| 2026-05-05 20:43 | 54.47756 | 18.61365 | 7856 ft | 275 kts | 134° |
| 2026-05-05 20:43 | 54.46439 | 18.63781 | 7469 ft | 275 kts | 134° |
| 2026-05-05 20:43 | 54.45130 | 18.66180 | 7182 ft | 273 kts | 134° |
| 2026-05-05 20:44 | 54.43844 | 18.68538 | 6816 ft | 269 kts | 134° |
| 2026-05-05 20:44 | 54.42562 | 18.70883 | 6370 ft | 268 kts | 134° |
| 2026-05-05 20:44 | 54.41315 | 18.73159 | 6096 ft | 260 kts | 134° |
| 2026-05-05 20:44 | 54.40095 | 18.75385 | 5827 ft | 253 kts | 134° |
| 2026-05-05 20:45 | 54.37630 | 18.79480 | 5242 ft | 242 kts | 136° |
| 2026-05-05 20:45 | 54.36421 | 18.81472 | 4932 ft | 238 kts | 136° |
| 2026-05-05 20:45 | 54.35230 | 18.83424 | 4704 ft | 236 kts | 136° |
| 2026-05-05 20:46 | 54.34041 | 18.85356 | 4463 ft | 235 kts | 136° |
| 2026-05-05 20:46 | 54.32853 | 18.87268 | 4293 ft | 232 kts | 137° |
| 2026-05-05 20:46 | 54.31476 | 18.88567 | 4258 ft | 228 kts | 174° |
| 2026-05-05 20:46 | 54.29976 | 18.88030 | 4275 ft | 223 kts | 216° |
| 2026-05-05 20:47 | 54.29059 | 18.85988 | 4306 ft | 215 kts | 251° |
| 2026-05-05 20:47 | 54.28774 | 18.83590 | 4299 ft | 204 kts | 276° |
| 2026-05-05 20:47 | 54.29243 | 18.81332 | 4160 ft | 204 kts | 298° |
| 2026-05-05 20:47 | 54.29829 | 18.79111 | 3941 ft | 205 kts | 292° |
| 2026-05-05 20:48 | 54.30348 | 18.76885 | 3878 ft | 201 kts | 293° |
| 2026-05-05 20:48 | 54.30878 | 18.74678 | 3654 ft | 198 kts | 294° |
| 2026-05-05 20:48 | 54.31408 | 18.72492 | 3362 ft | 197 kts | 294° |
| 2026-05-05 20:48 | 54.31939 | 18.70334 | 3105 ft | 197 kts | 294° |
| 2026-05-05 20:49 | 54.32485 | 18.68186 | 2853 ft | 197 kts | 294° |
| 2026-05-05 20:49 | 54.33011 | 18.66057 | 2585 ft | 194 kts | 296° |
| 2026-05-05 20:49 | 54.33500 | 18.63930 | 2336 ft | 188 kts | 289° |
| 2026-05-05 20:49 | 54.33975 | 18.61898 | 2106 ft | 179 kts | 296° |
| 2026-05-05 20:50 | 54.34465 | 18.59996 | 1883 ft | 166 kts | 294° |
| 2026-05-05 20:50 | 54.34757 | 18.58816 | 1715 ft | 159 kts | 294° |
| 2026-05-05 20:50 | 54.35311 | 18.56558 | 1435 ft | 150 kts | 293° |
| 2026-05-05 20:50 | 54.35716 | 18.54908 | 1243 ft | 151 kts | 293° |
| 2026-05-05 20:51 | 54.36108 | 18.53229 | 1054 ft | 154 kts | 292° |
| 2026-05-05 20:51 | 54.36535 | 18.51521 | 825 ft | 156 kts | 293° |
| 2026-05-05 20:51 | 54.36963 | 18.49811 | 622 ft | 154 kts | 294° |
| 2026-05-05 20:51 | 54.37375 | 18.48160 | 476 ft | 143 kts | 293° |
| 2026-05-05 20:52 | 54.37696 | 18.46870 | 454 ft | 87 kts | 293° |
| 2026-05-05 20:52 | 54.37817 | 18.46385 | 457 ft | 47 kts | 293° |
| 2026-05-05 20:52 | 54.37944 | 18.45948 | 454 ft | 37 kts | 308° |
| 2026-05-05 20:52 | 54.38071 | 18.45744 | 453 ft | 15 kts | 325° |
| 2026-05-05 20:53 | 54.38142 | 18.45730 | 452 ft | 10 kts | 52° |
| 2026-05-05 20:53 | 54.38130 | 18.45837 | 455 ft | 9 kts | 110° |
| 2026-05-05 20:53 | 54.38106 | 18.45936 | 457 ft | 9 kts | 113° |
| 2026-05-05 20:53 | 54.38082 | 18.46033 | 458 ft | 9 kts | 112° |
| 2026-05-05 20:54 | 54.38050 | 18.46163 | 456 ft | 14 kts | 112° |
| 2026-05-05 20:54 | 54.38009 | 18.46325 | 458 ft | 15 kts | 113° |
| 2026-05-05 20:54 | 54.37972 | 18.46477 | 457 ft | 10 kts | 112° |
| 2026-05-05 20:54 | 54.37984 | 18.46577 | 457 ft | 8 kts | 42° |
| 2026-05-05 20:55 | 54.38036 | 18.46617 | 459 ft | 8 kts | 18° |
| 2026-05-05 20:55 | 54.38078 | 18.46570 | 458 ft | 6 kts | 291° |
| 2026-05-05 20:55 | 54.38097 | 18.46541 | 459 ft | 2 kts | 2° |
| 2026-05-05 20:55 | 54.38112 | 18.46547 | 459 ft | 3 kts | 19° |
| 2026-05-05 20:56 | 54.38128 | 18.46559 | 456 ft | 3 kts | 23° |
| 2026-05-05 20:56 | 54.38129 | 18.46560 | 457 ft | 0 kts | 23° |